Terminal Aerodrome Forecast
Issued by NWS

Home | Current Version | Previous Version | Text Only | Print | Product List | Glossary On
Versions: 1 2 3 4 5 6 7 8 9 10 11 12 13 14 15 16 17 18 19 20 21 22 23 24 25 26 27 28 29 30 31 32 33
611
FTUS41 KBUF 251913 AAA
TAFJHW
TAF AMD
KJHW 251913Z 2519/2618 32009KT 6SM -SHRA BR OVC007
     FM252100 28009KT 6SM BR OVC003
     FM260400 28012G18KT 6SM BR OVC003
     FM261100 28012KT P6SM BKN007
     FM261300 29012KT P6SM SCT007
      AMD LTD TO CLD VIS AND WIND=

USA.gov is the U.S. government's official web portal to all federal, state and local government web resources and services.